CheckWX is a tool to help pilots better visualize weather data.  It is not intended as a substitute for an official pre-flight weather briefing.

09:24:49 UTC

KASH METAR
Boire Field Airport
Nashua, New Hampshire, USA
Current

29 mins ago

KASH 220856Z AUTO 32008G14KT 10SM CLR 11/03 A3008 RMK AO2 SLP195 T01110033 53022
Observed
May-22 @ 08:56 UTC
Wind
  • 320° at 8 KTS
  • Gusting to 14 KTS
Visibility
10 SM
Flight Rules
VFR
Cloud Levels
  • Clear skies
Temperature
11°C / 52°F
Dewpoint
C / 37°F
Humidity
58%
Altimeter
30.08" Hg
Pressure
1018.62 hPa
Previous

1 hour ago

KASH 220756Z AUTO 31012KT 10SM CLR 12/03 A3005 RMK AO2 SLP186 T01170028
Observed
May-22 @ 07:56 UTC
Wind
  • 310° at 12 KTS
Visibility
10 SM
Flight Rules
VFR
Cloud Levels
  • Clear skies
Temperature
12°C / 54°F
Dewpoint
C / 37°F
Humidity
54%
Altimeter
30.05" Hg
Pressure
1017.62 hPa
Previous

2 hours ago

KASH 220656Z AUTO 32009KT 10SM CLR 12/03 A3004 RMK AO2 SLP181 T01220028
Observed
May-22 @ 06:56 UTC
Wind
  • 320° at 9 KTS
Visibility
10 SM
Flight Rules
VFR
Cloud Levels
  • Clear skies
Temperature
12°C / 54°F
Dewpoint
C / 37°F
Humidity
54%
Altimeter
30.04" Hg
Pressure
1017.32 hPa